sensor_id;sensor_type;location;lat;lon;timestamp;pressure;altitude;pressure_sealevel;temperature;humidity
4705;BME280;2366;51.332;6.610;2024-01-30T00:01:50;102570.31;;;13.41;61.58
4705;BME280;2366;51.332;6.610;2024-01-30T00:04:15;102574.31;;;13.31;62.13
4705;BME280;2366;51.332;6.610;2024-01-30T00:06:41;102576.31;;;13.46;61.27
4705;BME280;2366;51.332;6.610;2024-01-30T00:09:07;102570.31;;;13.41;61.63
4705;BME280;2366;51.332;6.610;2024-01-30T00:11:34;102567.34;;;13.49;61.28
4705;BME280;2366;51.332;6.610;2024-01-30T00:13:59;102570.97;;;13.26;61.97
4705;BME280;2366;51.332;6.610;2024-01-30T00:16:25;102568.72;;;13.37;61.61
4705;BME280;2366;51.332;6.610;2024-01-30T00:18:51;102567.34;;;13.27;61.89
4705;BME280;2366;51.332;6.610;2024-01-30T00:21:17;102565.06;;;13.40;61.35
4705;BME280;2366;51.332;6.610;2024-01-30T00:23:43;102557.91;;;13.20;61.61
4705;BME280;2366;51.332;6.610;2024-01-30T00:26:08;102565.50;;;13.08;62.55
4705;BME280;2366;51.332;6.610;2024-01-30T00:28:34;102559.38;;;13.27;61.83
4705;BME280;2366;51.332;6.610;2024-01-30T00:30:59;102562.19;;;13.24;61.74
4705;BME280;2366;51.332;6.610;2024-01-30T00:33:24;102555.91;;;13.25;61.58
4705;BME280;2366;51.332;6.610;2024-01-30T00:35:50;102559.34;;;13.28;61.73
4705;BME280;2366;51.332;6.610;2024-01-30T00:38:15;102556.06;;;13.01;62.29
4705;BME280;2366;51.332;6.610;2024-01-30T00:40:41;102556.09;;;13.20;61.99
4705;BME280;2366;51.332;6.610;2024-01-30T00:43:06;102553.53;;;13.19;61.80
4705;BME280;2366;51.332;6.610;2024-01-30T00:45:31;102555.50;;;13.13;61.92
4705;BME280;2366;51.332;6.610;2024-01-30T00:47:57;102552.78;;;13.15;61.84
4705;BME280;2366;51.332;6.610;2024-01-30T00:50:22;102557.84;;;13.21;61.76
4705;BME280;2366;51.332;6.610;2024-01-30T00:52:47;102550.25;;;12.91;62.61
4705;BME280;2366;51.332;6.610;2024-01-30T00:55:13;102556.50;;;13.11;62.18
4705;BME280;2366;51.332;6.610;2024-01-30T00:57:39;102560.72;;;13.17;61.72
4705;BME280;2366;51.332;6.610;2024-01-30T01:00:06;102565.91;;;13.20;61.71
4705;BME280;2366;51.332;6.610;2024-01-30T01:02:34;102558.53;;;13.06;61.91
4705;BME280;2366;51.332;6.610;2024-01-30T01:05:00;102563.50;;;12.93;62.98
4705;BME280;2366;51.332;6.610;2024-01-30T01:07:25;102566.22;;;12.91;62.87
4705;BME280;2366;51.332;6.610;2024-01-30T01:09:50;102565.22;;;12.94;62.42
4705;BME280;2366;51.332;6.610;2024-01-30T01:12:16;102568.16;;;13.08;62.23
4705;BME280;2366;51.332;6.610;2024-01-30T01:14:41;102568.03;;;12.91;62.42
4705;BME280;2366;51.332;6.610;2024-01-30T01:17:07;102568.53;;;12.79;63.05
4705;BME280;2366;51.332;6.610;2024-01-30T01:19:32;102569.69;;;12.93;62.61
4705;BME280;2366;51.332;6.610;2024-01-30T01:21:58;102565.59;;;12.85;62.65
4705;BME280;2366;51.332;6.610;2024-01-30T01:24:23;102566.28;;;12.90;62.44
4705;BME280;2366;51.332;6.610;2024-01-30T01:26:49;102562.53;;;12.94;62.32
4705;BME280;2366;51.332;6.610;2024-01-30T01:29:15;102568.13;;;12.88;62.49
4705;BME280;2366;51.332;6.610;2024-01-30T01:31:41;102559.56;;;13.02;62.01
4705;BME280;2366;51.332;6.610;2024-01-30T01:34:12;102567.47;;;13.03;61.95
4705;BME280;2366;51.332;6.610;2024-01-30T01:36:39;102564.09;;;13.00;62.03
4705;BME280;2366;51.332;6.610;2024-01-30T01:39:04;102548.56;;;12.89;62.17
4705;BME280;2366;51.332;6.610;2024-01-30T01:41:33;102564.75;;;12.84;62.33
4705;BME280;2366;51.332;6.610;2024-01-30T01:43:59;102556.06;;;12.79;62.29
4705;BME280;2366;51.332;6.610;2024-01-30T01:46:27;102554.16;;;12.83;61.95
4705;BME280;2366;51.332;6.610;2024-01-30T01:48:53;102557.31;;;12.70;62.57
4705;BME280;2366;51.332;6.610;2024-01-30T01:51:19;102553.25;;;12.62;62.59
4705;BME280;2366;51.332;6.610;2024-01-30T01:53:45;102556.34;;;12.73;62.41
4705;BME280;2366;51.332;6.610;2024-01-30T01:56:10;102557.06;;;12.77;62.38
4705;BME280;2366;51.332;6.610;2024-01-30T01:58:36;102555.41;;;12.74;62.10
4705;BME280;2366;51.332;6.610;2024-01-30T02:01:03;102550.38;;;12.66;62.44
4705;BME280;2366;51.332;6.610;2024-01-30T02:03:30;102545.75;;;12.71;62.25
4705;BME280;2366;51.332;6.610;2024-01-30T02:05:56;102538.50;;;12.53;62.70
4705;BME280;2366;51.332;6.610;2024-01-30T02:08:22;102544.19;;;12.66;62.65
4705;BME280;2366;51.332;6.610;2024-01-30T02:10:48;102539.88;;;12.63;62.54
4705;BME280;2366;51.332;6.610;2024-01-30T02:13:14;102540.44;;;12.71;61.95
4705;BME280;2366;51.332;6.610;2024-01-30T02:15:39;102535.31;;;12.67;62.70
4705;BME280;2366;51.332;6.610;2024-01-30T02:18:04;102528.56;;;12.58;62.44
4705;BME280;2366;51.332;6.610;2024-01-30T02:20:31;102531.09;;;12.61;62.39
4705;BME280;2366;51.332;6.610;2024-01-30T02:22:58;102526.78;;;12.59;62.35
4705;BME280;2366;51.332;6.610;2024-01-30T02:25:39;102523.53;;;12.50;62.91
4705;BME280;2366;51.332;6.610;2024-01-30T02:28:12;102521.84;;;12.49;62.74
4705;BME280;2366;51.332;6.610;2024-01-30T02:30:47;102527.06;;;12.51;62.83
4705;BME280;2366;51.332;6.610;2024-01-30T02:33:13;102524.84;;;12.62;62.60
4705;BME280;2366;51.332;6.610;2024-01-30T02:35:39;102525.03;;;12.58;62.58
4705;BME280;2366;51.332;6.610;2024-01-30T02:38:04;102519.84;;;12.54;62.70
4705;BME280;2366;51.332;6.610;2024-01-30T02:40:30;102516.50;;;12.49;62.94
4705;BME280;2366;51.332;6.610;2024-01-30T02:42:56;102516.97;;;12.59;62.72
4705;BME280;2366;51.332;6.610;2024-01-30T02:45:21;102516.88;;;12.62;62.60
4705;BME280;2366;51.332;6.610;2024-01-30T02:47:47;102509.00;;;12.59;62.62
4705;BME280;2366;51.332;6.610;2024-01-30T02:50:12;102506.09;;;12.65;62.19
4705;BME280;2366;51.332;6.610;2024-01-30T02:52:38;102511.91;;;12.53;62.77
4705;BME280;2366;51.332;6.610;2024-01-30T02:55:04;102515.72;;;12.68;62.47
4705;BME280;2366;51.332;6.610;2024-01-30T02:57:29;102510.66;;;12.62;62.44
4705;BME280;2366;51.332;6.610;2024-01-30T02:59:55;102508.19;;;12.57;62.74
4705;BME280;2366;51.332;6.610;2024-01-30T03:02:20;102506.63;;;12.73;62.17
4705;BME280;2366;51.332;6.610;2024-01-30T03:04:46;102505.09;;;12.68;62.12
4705;BME280;2366;51.332;6.610;2024-01-30T03:07:12;102504.38;;;12.64;61.97
4705;BME280;2366;51.332;6.610;2024-01-30T03:09:37;102503.13;;;12.51;62.80
4705;BME280;2366;51.332;6.610;2024-01-30T03:12:03;102509.81;;;12.61;62.67
4705;BME280;2366;51.332;6.610;2024-01-30T03:14:32;102502.75;;;12.60;62.62
4705;BME280;2366;51.332;6.610;2024-01-30T03:16:58;102503.88;;;12.54;62.71
4705;BME280;2366;51.332;6.610;2024-01-30T03:19:23;102502.06;;;12.55;62.78
4705;BME280;2366;51.332;6.610;2024-01-30T03:21:49;102493.38;;;12.51;62.71
4705;BME280;2366;51.332;6.610;2024-01-30T03:24:15;102505.53;;;12.57;62.80
4705;BME280;2366;51.332;6.610;2024-01-30T03:26:40;102492.78;;;12.65;62.38
4705;BME280;2366;51.332;6.610;2024-01-30T03:29:06;102494.66;;;12.63;62.31
4705;BME280;2366;51.332;6.610;2024-01-30T03:31:31;102491.44;;;12.55;62.73
4705;BME280;2366;51.332;6.610;2024-01-30T03:33:57;102489.66;;;12.56;62.45
4705;BME280;2366;51.332;6.610;2024-01-30T03:36:22;102497.44;;;12.38;63.18
4705;BME280;2366;51.332;6.610;2024-01-30T03:38:47;102488.84;;;12.53;62.92
4705;BME280;2366;51.332;6.610;2024-01-30T03:41:13;102494.97;;;12.33;63.49
4705;BME280;2366;51.332;6.610;2024-01-30T03:43:38;102494.47;;;12.46;63.07
4705;BME280;2366;51.332;6.610;2024-01-30T03:46:04;102493.00;;;12.39;63.45
4705;BME280;2366;51.332;6.610;2024-01-30T03:48:30;102495.28;;;12.48;63.16
4705;BME280;2366;51.332;6.610;2024-01-30T03:50:55;102495.91;;;12.32;63.14
4705;BME280;2366;51.332;6.610;2024-01-30T03:53:21;102491.88;;;12.44;63.02
4705;BME280;2366;51.332;6.610;2024-01-30T03:55:47;102497.00;;;12.49;62.65
4705;BME280;2366;51.332;6.610;2024-01-30T03:58:12;102483.97;;;12.43;63.23
4705;BME280;2366;51.332;6.610;2024-01-30T04:00:37;102476.50;;;12.30;63.15
4705;BME280;2366;51.332;6.610;2024-01-30T04:03:03;102477.28;;;12.32;63.34
4705;BME280;2366;51.332;6.610;2024-01-30T04:05:29;102475.91;;;12.44;63.03
4705;BME280;2366;51.332;6.610;2024-01-30T04:07:54;102475.06;;;12.22;64.05
4705;BME280;2366;51.332;6.610;2024-01-30T04:10:20;102470.75;;;12.19;64.03
4705;BME280;2366;51.332;6.610;2024-01-30T04:12:45;102469.56;;;12.26;63.51
4705;BME280;2366;51.332;6.610;2024-01-30T04:15:10;102460.78;;;12.24;63.90
4705;BME280;2366;51.332;6.610;2024-01-30T04:17:36;102458.88;;;12.28;63.53
4705;BME280;2366;51.332;6.610;2024-01-30T04:20:01;102463.34;;;12.27;63.63
4705;BME280;2366;51.332;6.610;2024-01-30T04:22:27;102461.34;;;12.32;63.33
4705;BME280;2366;51.332;6.610;2024-01-30T04:24:52;102463.00;;;12.35;63.50
4705;BME280;2366;51.332;6.610;2024-01-30T04:27:18;102468.25;;;12.37;63.26
4705;BME280;2366;51.332;6.610;2024-01-30T04:29:43;102459.72;;;12.28;63.65
4705;BME280;2366;51.332;6.610;2024-01-30T04:32:09;102457.94;;;12.29;63.36
4705;BME280;2366;51.332;6.610;2024-01-30T04:34:36;102462.44;;;12.27;63.81
4705;BME280;2366;51.332;6.610;2024-01-30T04:37:02;102457.81;;;12.32;63.85
4705;BME280;2366;51.332;6.610;2024-01-30T04:39:27;102471.59;;;12.42;63.39
4705;BME280;2366;51.332;6.610;2024-01-30T04:41:52;102481.38;;;12.41;63.01
4705;BME280;2366;51.332;6.610;2024-01-30T04:44:18;102472.84;;;12.33;63.38
4705;BME280;2366;51.332;6.610;2024-01-30T04:46:43;102476.53;;;12.29;63.83
4705;BME280;2366;51.332;6.610;2024-01-30T04:49:08;102479.81;;;12.36;63.44
4705;BME280;2366;51.332;6.610;2024-01-30T04:51:34;102481.44;;;12.40;63.11
4705;BME280;2366;51.332;6.610;2024-01-30T04:53:59;102476.91;;;12.42;63.39
4705;BME280;2366;51.332;6.610;2024-01-30T04:56:25;102469.06;;;12.39;63.29
4705;BME280;2366;51.332;6.610;2024-01-30T04:58:50;102471.72;;;12.39;63.47
4705;BME280;2366;51.332;6.610;2024-01-30T05:01:16;102462.69;;;12.43;63.51
4705;BME280;2366;51.332;6.610;2024-01-30T05:03:42;102472.41;;;12.44;63.14
4705;BME280;2366;51.332;6.610;2024-01-30T05:06:07;102461.25;;;12.56;62.90
4705;BME280;2366;51.332;6.610;2024-01-30T05:08:32;102465.63;;;12.57;62.32
4705;BME280;2366;51.332;6.610;2024-01-30T05:11:01;102458.94;;;12.47;62.77
4705;BME280;2366;51.332;6.610;2024-01-30T05:13:31;102462.50;;;12.47;62.57
4705;BME280;2366;51.332;6.610;2024-01-30T05:15:57;102457.44;;;12.41;63.15
4705;BME280;2366;51.332;6.610;2024-01-30T05:18:22;102458.94;;;12.47;62.68
4705;BME280;2366;51.332;6.610;2024-01-30T05:20:49;102462.81;;;12.40;63.34
4705;BME280;2366;51.332;6.610;2024-01-30T05:23:15;102466.41;;;12.39;62.79
4705;BME280;2366;51.332;6.610;2024-01-30T05:25:40;102464.91;;;12.31;63.32
4705;BME280;2366;51.332;6.610;2024-01-30T05:28:05;102462.16;;;12.35;63.19
4705;BME280;2366;51.332;6.610;2024-01-30T05:30:31;102463.06;;;12.33;62.98
4705;BME280;2366;51.332;6.610;2024-01-30T05:32:56;102462.06;;;12.14;63.81
4705;BME280;2366;51.332;6.610;2024-01-30T05:35:21;102454.66;;;12.22;63.40
4705;BME280;2366;51.332;6.610;2024-01-30T05:37:50;102455.28;;;12.29;63.27
4705;BME280;2366;51.332;6.610;2024-01-30T05:40:16;102452.56;;;12.30;63.31
4705;BME280;2366;51.332;6.610;2024-01-30T05:42:41;102444.03;;;12.22;63.53
4705;BME280;2366;51.332;6.610;2024-01-30T05:45:07;102452.59;;;12.29;63.58
4705;BME280;2366;51.332;6.610;2024-01-30T05:47:34;102445.63;;;12.26;63.34
4705;BME280;2366;51.332;6.610;2024-01-30T05:49:59;102441.16;;;12.27;63.55
4705;BME280;2366;51.332;6.610;2024-01-30T05:52:24;102443.34;;;12.17;64.22
4705;BME280;2366;51.332;6.610;2024-01-30T05:54:50;102441.16;;;12.27;63.87
4705;BME280;2366;51.332;6.610;2024-01-30T05:57:15;102436.09;;;12.21;63.82
4705;BME280;2366;51.332;6.610;2024-01-30T05:59:41;102438.91;;;12.38;63.16
4705;BME280;2366;51.332;6.610;2024-01-30T06:02:06;102445.84;;;12.42;63.21
4705;BME280;2366;51.332;6.610;2024-01-30T06:04:31;102444.06;;;12.43;63.24
4705;BME280;2366;51.332;6.610;2024-01-30T06:06:57;102446.41;;;12.50;62.99
4705;BME280;2366;51.332;6.610;2024-01-30T06:09:22;102442.88;;;12.50;62.97
4705;BME280;2366;51.332;6.610;2024-01-30T06:11:48;102447.09;;;12.33;63.77
4705;BME280;2366;51.332;6.610;2024-01-30T06:14:13;102444.00;;;12.44;63.29
4705;BME280;2366;51.332;6.610;2024-01-30T06:16:39;102440.41;;;12.45;63.32
4705;BME280;2366;51.332;6.610;2024-01-30T06:19:04;102443.47;;;12.57;63.49
4705;BME280;2366;51.332;6.610;2024-01-30T06:21:31;102447.53;;;12.65;62.71
4705;BME280;2366;51.332;6.610;2024-01-30T06:23:57;102433.09;;;12.50;62.99
4705;BME280;2366;51.332;6.610;2024-01-30T06:26:22;102432.84;;;12.57;62.56
4705;BME280;2366;51.332;6.610;2024-01-30T06:28:48;102439.81;;;12.59;63.08
4705;BME280;2366;51.332;6.610;2024-01-30T06:31:13;102434.03;;;12.70;62.88
4705;BME280;2366;51.332;6.610;2024-01-30T06:33:39;102441.03;;;12.72;62.34
4705;BME280;2366;51.332;6.610;2024-01-30T06:36:04;102442.03;;;12.70;62.18
4705;BME280;2366;51.332;6.610;2024-01-30T06:38:29;102447.00;;;12.57;62.81
4705;BME280;2366;51.332;6.610;2024-01-30T06:40:55;102436.09;;;12.63;62.74
4705;BME280;2366;51.332;6.610;2024-01-30T06:43:22;102447.22;;;12.73;62.60
4705;BME280;2366;51.332;6.610;2024-01-30T06:45:47;102445.34;;;12.75;62.22
4705;BME280;2366;51.332;6.610;2024-01-30T06:48:12;102449.00;;;12.72;62.50
4705;BME280;2366;51.332;6.610;2024-01-30T06:50:38;102453.16;;;12.80;62.20
4705;BME280;2366;51.332;6.610;2024-01-30T06:53:03;102463.25;;;12.71;62.36
4705;BME280;2366;51.332;6.610;2024-01-30T06:55:29;102459.38;;;12.79;62.35
4705;BME280;2366;51.332;6.610;2024-01-30T06:57:54;102464.97;;;12.72;62.43
4705;BME280;2366;51.332;6.610;2024-01-30T07:00:19;102457.41;;;12.84;62.25
4705;BME280;2366;51.332;6.610;2024-01-30T07:02:45;102455.72;;;12.81;62.42
4705;BME280;2366;51.332;6.610;2024-01-30T07:05:10;102462.41;;;12.71;62.71
4705;BME280;2366;51.332;6.610;2024-01-30T07:07:36;102454.88;;;12.60;62.87
4705;BME280;2366;51.332;6.610;2024-01-30T07:10:01;102454.59;;;12.66;62.87
4705;BME280;2366;51.332;6.610;2024-01-30T07:12:27;102455.97;;;12.75;62.52
4705;BME280;2366;51.332;6.610;2024-01-30T07:14:52;102455.00;;;12.78;62.38
4705;BME280;2366;51.332;6.610;2024-01-30T07:17:18;102451.00;;;12.88;62.10
4705;BME280;2366;51.332;6.610;2024-01-30T07:19:43;102463.91;;;12.77;62.06
4705;BME280;2366;51.332;6.610;2024-01-30T07:22:09;102460.41;;;12.76;62.16
4705;BME280;2366;51.332;6.610;2024-01-30T07:24:34;102466.31;;;12.83;62.17
4705;BME280;2366;51.332;6.610;2024-01-30T07:27:00;102465.06;;;12.91;61.80
4705;BME280;2366;51.332;6.610;2024-01-30T07:29:26;102471.78;;;12.80;62.29
4705;BME280;2366;51.332;6.610;2024-01-30T07:31:51;102475.22;;;12.61;63.11
4705;BME280;2366;51.332;6.610;2024-01-30T07:34:16;102488.16;;;12.91;62.07
4705;BME280;2366;51.332;6.610;2024-01-30T07:36:42;102485.81;;;13.04;61.37
4705;BME280;2366;51.332;6.610;2024-01-30T07:39:07;102483.75;;;12.90;61.98
4705;BME280;2366;51.332;6.610;2024-01-30T07:41:33;102486.13;;;12.96;61.66
4705;BME280;2366;51.332;6.610;2024-01-30T07:43:58;102492.75;;;13.08;61.26
4705;BME280;2366;51.332;6.610;2024-01-30T07:46:24;102499.25;;;13.01;61.43
4705;BME280;2366;51.332;6.610;2024-01-30T07:48:49;102497.38;;;13.03;61.60
4705;BME280;2366;51.332;6.610;2024-01-30T07:51:14;102505.97;;;13.09;61.27
4705;BME280;2366;51.332;6.610;2024-01-30T07:53:40;102496.66;;;13.20;61.21
4705;BME280;2366;51.332;6.610;2024-01-30T07:56:05;102493.84;;;13.23;60.93
4705;BME280;2366;51.332;6.610;2024-01-30T07:58:31;102488.72;;;13.18;61.14
4705;BME280;2366;51.332;6.610;2024-01-30T08:00:56;102493.84;;;13.23;60.93
4705;BME280;2366;51.332;6.610;2024-01-30T08:03:23;102483.38;;;12.99;61.47
4705;BME280;2366;51.332;6.610;2024-01-30T08:05:49;102502.13;;;13.17;61.14
4705;BME280;2366;51.332;6.610;2024-01-30T08:08:14;102510.38;;;13.31;60.81
4705;BME280;2366;51.332;6.610;2024-01-30T08:10:40;102517.69;;;13.46;60.30
4705;BME280;2366;51.332;6.610;2024-01-30T08:13:05;102514.00;;;13.30;61.13
4705;BME280;2366;51.332;6.610;2024-01-30T08:15:31;102516.03;;;13.44;60.61
4705;BME280;2366;51.332;6.610;2024-01-30T08:17:56;102508.63;;;13.50;60.32
4705;BME280;2366;51.332;6.610;2024-01-30T08:20:24;102524.09;;;13.42;60.43
4705;BME280;2366;51.332;6.610;2024-01-30T08:22:49;102528.00;;;13.54;60.25
4705;BME280;2366;51.332;6.610;2024-01-30T08:25:15;102514.03;;;13.49;60.67
4705;BME280;2366;51.332;6.610;2024-01-30T08:27:40;102524.72;;;13.68;60.14
4705;BME280;2366;51.332;6.610;2024-01-30T08:30:06;102522.56;;;13.76;59.97
4705;BME280;2366;51.332;6.610;2024-01-30T08:32:32;102525.50;;;13.70;60.04
4705;BME280;2366;51.332;6.610;2024-01-30T08:34:57;102528.84;;;13.75;59.88
4705;BME280;2366;51.332;6.610;2024-01-30T08:37:23;102523.69;;;13.51;60.50
4705;BME280;2366;51.332;6.610;2024-01-30T08:39:48;102528.63;;;13.80;59.83
4705;BME280;2366;51.332;6.610;2024-01-30T08:42:14;102531.38;;;13.97;59.54
4705;BME280;2366;51.332;6.610;2024-01-30T08:44:39;102533.94;;;13.98;59.37
4705;BME280;2366;51.332;6.610;2024-01-30T08:47:05;102533.94;;;13.98;59.31
4705;BME280;2366;51.332;6.610;2024-01-30T08:49:31;102532.50;;;14.10;59.13
4705;BME280;2366;51.332;6.610;2024-01-30T08:51:57;102535.03;;;14.13;59.19
4705;BME280;2366;51.332;6.610;2024-01-30T08:54:23;102536.84;;;14.13;59.05
4705;BME280;2366;51.332;6.610;2024-01-30T08:56:49;102536.59;;;13.98;58.91
4705;BME280;2366;51.332;6.610;2024-01-30T08:59:14;102538.47;;;13.96;59.44
4705;BME280;2366;51.332;6.610;2024-01-30T09:01:40;102538.41;;;13.79;59.81
4705;BME280;2366;51.332;6.610;2024-01-30T09:04:05;102549.03;;;14.00;59.54
4705;BME280;2366;51.332;6.610;2024-01-30T09:06:31;102548.56;;;14.09;59.12
4705;BME280;2366;51.332;6.610;2024-01-30T09:08:56;102546.13;;;14.04;58.96
4705;BME280;2366;51.332;6.610;2024-01-30T09:11:23;102557.09;;;13.98;59.34
4705;BME280;2366;51.332;6.610;2024-01-30T09:13:48;102562.66;;;14.12;58.83
4705;BME280;2366;51.332;6.610;2024-01-30T09:16:14;102548.63;;;14.26;58.83
4705;BME280;2366;51.332;6.610;2024-01-30T09:18:41;102552.38;;;14.41;58.46
4705;BME280;2366;51.332;6.610;2024-01-30T09:21:06;102555.66;;;14.65;57.49
4705;BME280;2366;51.332;6.610;2024-01-30T09:23:32;102557.88;;;14.92;57.33
4705;BME280;2366;51.332;6.610;2024-01-30T09:25:57;102557.13;;;14.90;57.01
4705;BME280;2366;51.332;6.610;2024-01-30T09:28:23;102554.78;;;15.01;56.78
4705;BME280;2366;51.332;6.610;2024-01-30T09:30:48;102549.44;;;14.84;56.80
4705;BME280;2366;51.332;6.610;2024-01-30T09:33:14;102555.31;;;14.90;56.84
4705;BME280;2366;51.332;6.610;2024-01-30T09:35:39;102553.69;;;14.88;57.21
4705;BME280;2366;51.332;6.610;2024-01-30T09:38:04;102558.84;;;14.91;56.60
4705;BME280;2366;51.332;6.610;2024-01-30T09:40:30;102555.88;;;15.14;56.29
4705;BME280;2366;51.332;6.610;2024-01-30T09:42:55;102562.59;;;15.39;55.85
4705;BME280;2366;51.332;6.610;2024-01-30T09:45:24;102561.97;;;15.51;55.56
4705;BME280;2366;51.332;6.610;2024-01-30T09:47:50;102561.72;;;15.56;55.35
4705;BME280;2366;51.332;6.610;2024-01-30T09:50:16;102561.13;;;15.67;54.54
4705;BME280;2366;51.332;6.610;2024-01-30T09:52:45;102565.69;;;15.82;55.04
4705;BME280;2366;51.332;6.610;2024-01-30T09:55:11;102566.22;;;16.05;54.64
4705;BME280;2366;51.332;6.610;2024-01-30T09:57:37;102563.53;;;16.05;54.38
4705;BME280;2366;51.332;6.610;2024-01-30T10:00:06;102560.53;;;16.11;54.33
4705;BME280;2366;51.332;6.610;2024-01-30T10:02:35;102568.72;;;16.08;54.25
4705;BME280;2366;51.332;6.610;2024-01-30T10:05:01;102563.31;;;16.25;54.35
4705;BME280;2366;51.332;6.610;2024-01-30T10:07:27;102565.78;;;15.96;54.16
4705;BME280;2366;51.332;6.610;2024-01-30T10:09:53;102559.81;;;15.75;55.20
4705;BME280;2366;51.332;6.610;2024-01-30T10:12:18;102560.16;;;15.85;54.61
4705;BME280;2366;51.332;6.610;2024-01-30T10:14:44;102561.63;;;15.57;55.08
4705;BME280;2366;51.332;6.610;2024-01-30T10:17:11;102555.31;;;15.76;54.97
4705;BME280;2366;51.332;6.610;2024-01-30T10:19:38;102558.44;;;15.84;55.04
4705;BME280;2366;51.332;6.610;2024-01-30T10:22:04;102550.69;;;15.62;55.26
4705;BME280;2366;51.332;6.610;2024-01-30T10:24:30;102562.34;;;15.94;54.64
4705;BME280;2366;51.332;6.610;2024-01-30T10:26:55;102571.75;;;16.01;54.78
4705;BME280;2366;51.332;6.610;2024-01-30T10:29:21;102571.34;;;16.25;54.47
4705;BME280;2366;51.332;6.610;2024-01-30T10:32:03;102572.94;;;16.43;53.93
4705;BME280;2366;51.332;6.610;2024-01-30T10:34:30;102579.09;;;16.46;53.82
4705;BME280;2366;51.332;6.610;2024-01-30T10:37:09;102571.94;;;16.30;53.74
4705;BME280;2366;51.332;6.610;2024-01-30T10:39:41;102566.75;;;16.11;54.31
4705;BME280;2366;51.332;6.610;2024-01-30T10:42:14;102563.53;;;16.05;54.41
4705;BME280;2366;51.332;6.610;2024-01-30T10:47:30;102571.41;;;15.92;54.94
4705;BME280;2366;51.332;6.610;2024-01-30T10:49:56;102574.44;;;16.17;54.49
4705;BME280;2366;51.332;6.610;2024-01-30T10:52:23;102573.13;;;16.40;53.98
4705;BME280;2366;51.332;6.610;2024-01-30T10:54:54;102577.47;;;16.27;54.33
4705;BME280;2366;51.332;6.610;2024-01-30T10:57:23;102577.97;;;16.34;54.00
4705;BME280;2366;51.332;6.610;2024-01-30T10:59:49;102573.31;;;16.37;54.16
4705;BME280;2366;51.332;6.610;2024-01-30T11:02:15;102572.06;;;16.59;53.81
4705;BME280;2366;51.332;6.610;2024-01-30T11:04:41;102578.81;;;16.50;53.97
4705;BME280;2366;51.332;6.610;2024-01-30T11:07:17;102581.94;;;16.42;54.44
4705;BME280;2366;51.332;6.610;2024-01-30T11:09:52;102577.25;;;16.62;53.86
4705;BME280;2366;51.332;6.610;2024-01-30T11:12:22;102577.84;;;16.67;53.92
4705;BME280;2366;51.332;6.610;2024-01-30T11:14:49;102576.72;;;16.71;53.89
4705;BME280;2366;51.332;6.610;2024-01-30T11:17:15;102565.84;;;16.74;53.72
4705;BME280;2366;51.332;6.610;2024-01-30T11:19:41;102570.88;;;16.64;53.83
4705;BME280;2366;51.332;6.610;2024-01-30T11:22:07;102574.00;;;16.57;54.13
4705;BME280;2366;51.332;6.610;2024-01-30T11:24:41;102579.72;;;16.51;54.32
4705;BME280;2366;51.332;6.610;2024-01-30T11:27:10;102573.72;;;16.46;54.40
4705;BME280;2366;51.332;6.610;2024-01-30T11:29:35;102577.97;;;16.50;54.47
4705;BME280;2366;51.332;6.610;2024-01-30T11:32:02;102571.16;;;16.44;54.79
4705;BME280;2366;51.332;6.610;2024-01-30T11:34:27;102564.25;;;16.40;54.96
4705;BME280;2366;51.332;6.610;2024-01-30T11:36:57;102572.09;;;16.27;55.44
4705;BME280;2366;51.332;6.610;2024-01-30T11:39:27;102565.81;;;16.44;54.99
4705;BME280;2366;51.332;6.610;2024-01-30T11:41:54;102572.28;;;16.40;54.98
4705;BME280;2366;51.332;6.610;2024-01-30T11:44:20;102564.31;;;16.54;55.02
4705;BME280;2366;51.332;6.610;2024-01-30T11:46:49;102566.72;;;16.59;54.95
4705;BME280;2366;51.332;6.610;2024-01-30T11:49:18;102565.03;;;16.42;55.37
4705;BME280;2366;51.332;6.610;2024-01-30T11:51:47;102563.44;;;16.54;55.20
4705;BME280;2366;51.332;6.610;2024-01-30T11:54:16;102559.13;;;16.51;55.23
4705;BME280;2366;51.332;6.610;2024-01-30T11:56:42;102561.72;;;16.69;55.07
4705;BME280;2366;51.332;6.610;2024-01-30T11:59:08;102563.94;;;16.76;54.80
4705;BME280;2366;51.332;6.610;2024-01-30T12:01:34;102563.59;;;16.82;54.69
4705;BME280;2366;51.332;6.610;2024-01-30T12:03:59;102560.00;;;16.52;55.52
4705;BME280;2366;51.332;6.610;2024-01-30T12:06:25;102552.53;;;16.27;56.50
4705;BME280;2366;51.332;6.610;2024-01-30T12:09:01;102542.34;;;16.33;56.46
4705;BME280;2366;51.332;6.610;2024-01-30T12:11:29;102555.59;;;16.51;56.34
4705;BME280;2366;51.332;6.610;2024-01-30T12:13:55;102548.81;;;16.75;55.48
4705;BME280;2366;51.332;6.610;2024-01-30T12:16:21;102555.50;;;16.68;55.84
4705;BME280;2366;51.332;6.610;2024-01-30T12:18:47;102550.97;;;16.84;55.43
4705;BME280;2366;51.332;6.610;2024-01-30T12:21:16;102548.22;;;16.86;55.68
4705;BME280;2366;51.332;6.610;2024-01-30T12:23:42;102549.28;;;16.68;56.46
4705;BME280;2366;51.332;6.610;2024-01-30T12:26:07;102549.78;;;16.74;56.56
4705;BME280;2366;51.332;6.610;2024-01-30T12:28:33;102546.22;;;16.74;56.59
4705;BME280;2366;51.332;6.610;2024-01-30T12:31:03;102553.50;;;16.88;56.41
4705;BME280;2366;51.332;6.610;2024-01-30T12:33:29;102558.59;;;16.76;57.00
4705;BME280;2366;51.332;6.610;2024-01-30T12:35:55;102553.28;;;16.91;57.37
4705;BME280;2366;51.332;6.610;2024-01-30T12:38:21;102556.31;;;17.00;57.30
4705;BME280;2366;51.332;6.610;2024-01-30T12:40:46;102556.25;;;17.16;56.92
4705;BME280;2366;51.332;6.610;2024-01-30T12:43:13;102556.25;;;17.16;57.07
4705;BME280;2366;51.332;6.610;2024-01-30T12:45:38;102555.75;;;17.10;57.36
4705;BME280;2366;51.332;6.610;2024-01-30T12:48:04;102553.75;;;17.13;57.45
4705;BME280;2366;51.332;6.610;2024-01-30T12:50:30;102560.75;;;17.16;57.38
4705;BME280;2366;51.332;6.610;2024-01-30T12:52:55;102557.09;;;17.17;57.45
4705;BME280;2366;51.332;6.610;2024-01-30T12:55:21;102565.50;;;17.11;57.88
4705;BME280;2366;51.332;6.610;2024-01-30T12:57:46;102563.16;;;17.20;57.32
4705;BME280;2366;51.332;6.610;2024-01-30T13:00:12;102558.63;;;17.21;57.46
4705;BME280;2366;51.332;6.610;2024-01-30T13:02:37;102564.06;;;17.19;57.37
4705;BME280;2366;51.332;6.610;2024-01-30T13:05:03;102567.25;;;17.26;57.49
4705;BME280;2366;51.332;6.610;2024-01-30T13:07:29;102570.22;;;17.21;57.63